createdAt,value
2024-03-04T00:04:23.975Z,63.13
2024-03-04T00:09:27.672Z,61.56
2024-03-04T00:14:30.590Z,60.28
2024-03-04T00:19:33.811Z,59.20
2024-03-04T00:24:36.811Z,64.44
2024-03-04T00:29:39.814Z,63.96
2024-03-04T00:34:42.781Z,61.93
2024-03-04T00:39:47.147Z,60.54
2024-03-04T00:44:50.126Z,59.61
2024-03-04T00:49:53.056Z,64.06
2024-03-04T00:54:55.997Z,62.91
2024-03-04T00:59:59.071Z,61.20
2024-03-04T01:05:02.285Z,60.27
2024-03-04T01:10:05.947Z,58.95
2024-03-04T01:15:09.636Z,64.42
2024-03-04T01:20:14.948Z,63.43
2024-03-04T01:25:18.014Z,61.93
2024-03-04T01:30:21.114Z,60.68
2024-03-04T01:35:24.537Z,60.60
2024-03-04T01:40:27.715Z,60.26
2024-03-04T01:45:30.759Z,58.76
2024-03-04T01:50:37.818Z,61.79
2024-03-04T01:55:45.642Z,64.99
2024-03-04T02:00:50.621Z,62.49
2024-03-04T02:05:56.077Z,60.47
2024-03-04T02:10:59.215Z,59.68
2024-03-04T02:16:02.242Z,60.83
2024-03-04T02:21:06.969Z,64.88
2024-03-04T02:26:09.848Z,62.11
2024-03-04T02:31:15.363Z,59.14
2024-03-04T02:36:19.108Z,60.29
2024-03-04T02:41:22.377Z,65.90
2024-03-04T02:46:25.917Z,64.70
2024-03-04T02:51:28.810Z,62.40
2024-03-04T02:56:31.918Z,62.34
2024-03-04T03:01:34.890Z,61.64
2024-03-04T03:06:37.997Z,61.47
2024-03-04T03:11:41.698Z,60.35
2024-03-04T03:16:44.706Z,60.08
2024-03-04T03:21:47.632Z,57.74
2024-03-04T03:26:50.647Z,62.00
2024-03-04T03:31:53.543Z,65.24
2024-03-04T03:36:56.571Z,62.32
2024-03-04T03:42:01.357Z,59.91
2024-03-04T03:47:04.423Z,58.38
2024-03-04T03:52:08.516Z,63.40
2024-03-04T03:57:11.661Z,65.67
2024-03-04T04:02:14.638Z,62.99
2024-03-04T04:07:17.607Z,61.19
2024-03-04T04:12:21.083Z,60.20
2024-03-04T04:17:23.982Z,59.18
2024-03-04T04:22:28.396Z,63.86
2024-03-04T04:27:31.551Z,63.83
2024-03-04T04:32:36.428Z,62.01
2024-03-04T04:37:39.577Z,61.53
2024-03-04T04:42:42.703Z,59.39
2024-03-04T04:47:45.555Z,59.42
2024-03-04T04:52:48.518Z,64.41
2024-03-04T04:57:51.418Z,63.24
2024-03-04T05:02:55.523Z,60.82
2024-03-04T05:07:58.763Z,59.14
2024-03-04T05:13:01.722Z,59.61
2024-03-04T05:18:04.910Z,64.93
2024-03-04T05:23:07.900Z,65.00
2024-03-04T05:28:10.844Z,63.88
2024-03-04T05:33:14.664Z,60.37
2024-03-04T05:38:18.344Z,58.09
2024-03-04T05:43:21.280Z,60.97
2024-03-04T05:48:24.258Z,65.17
2024-03-04T05:53:27.155Z,63.64
2024-03-04T05:58:30.909Z,60.82
2024-03-04T06:03:35.148Z,60.08
2024-03-04T06:08:38.125Z,57.26
2024-03-04T06:13:41.156Z,62.88
2024-03-04T06:18:44.033Z,65.24
2024-03-04T06:23:46.947Z,62.18
2024-03-04T06:28:49.946Z,59.09
2024-03-04T06:33:54.044Z,62.35
2024-03-04T06:38:57.609Z,62.13
2024-03-04T06:44:00.518Z,58.19
2024-03-04T06:49:03.388Z,60.74
2024-03-04T06:54:07.036Z,63.61
2024-03-04T06:59:09.936Z,59.91
2024-03-04T07:04:12.970Z,59.78
2024-03-04T07:09:15.857Z,64.08
2024-03-04T07:14:18.854Z,62.14
2024-03-04T07:19:22.104Z,57.89
2024-03-04T07:24:25.285Z,60.20
2024-03-04T07:29:36.284Z,64.18
2024-03-04T07:34:44.044Z,61.50
2024-03-04T07:39:47.696Z,58.39
2024-03-04T07:44:50.614Z,62.12
2024-03-04T07:49:53.710Z,62.45
2024-03-04T07:54:57.073Z,57.85
2024-03-04T07:59:59.946Z,61.74
2024-03-04T08:05:03.197Z,63.19
2024-03-04T08:10:09.898Z,58.38
2024-03-04T08:15:13.067Z,58.50
2024-03-04T08:20:20.879Z,61.03
2024-03-04T08:25:31.298Z,62.37
2024-03-04T08:30:34.265Z,56.80
2024-03-04T08:35:37.273Z,59.98
2024-03-04T08:40:40.251Z,58.17
2024-03-04T08:45:43.185Z,56.32
2024-03-04T08:50:46.084Z,49.94
2024-03-04T08:55:49.023Z,49.69
2024-03-04T09:00:51.972Z,47.24
2024-03-04T09:05:55.026Z,43.79
2024-03-04T09:10:58.046Z,45.79
2024-03-04T09:16:00.967Z,45.80
2024-03-04T09:21:04.443Z,43.35
2024-03-04T09:26:11.039Z,37.98
2024-03-04T09:31:14.049Z,37.12
2024-03-04T09:36:17.452Z,39.19
2024-03-04T09:41:20.362Z,36.43
2024-03-04T09:46:24.104Z,34.64
2024-03-04T09:51:27.801Z,34.61
2024-03-04T09:56:30.607Z,34.44
2024-03-04T10:01:34.079Z,33.52
2024-03-04T10:06:37.134Z,34.57
2024-03-04T10:11:40.927Z,36.46
2024-03-04T10:16:44.969Z,38.54
2024-03-04T10:21:48.400Z,41.91
2024-03-04T10:26:51.446Z,45.42
2024-03-04T10:31:55.359Z,47.44
2024-03-04T10:37:00.279Z,48.82
2024-03-04T10:42:04.586Z,48.14
2024-03-04T10:47:08.046Z,46.95
2024-03-04T10:52:14.193Z,48.23
2024-03-04T10:57:28.245Z,41.87
2024-03-04T11:02:39.172Z,36.62
2024-03-04T11:07:44.291Z,38.31
2024-03-04T11:12:51.654Z,39.92
2024-03-04T11:17:58.104Z,37.43
2024-03-04T11:23:01.811Z,34.38
2024-03-04T11:28:05.439Z,34.48
2024-03-04T11:33:34.713Z,36.83
2024-03-04T11:38:44.258Z,36.44
2024-03-04T11:43:48.586Z,36.95
2024-03-04T11:48:53.566Z,36.57
2024-03-04T11:53:57.383Z,34.65
2024-03-04T11:59:02.440Z,35.35
2024-03-04T12:04:07.231Z,35.49
2024-03-04T12:09:28.984Z,35.65
2024-03-04T12:14:34.100Z,34.08
2024-03-04T12:19:37.173Z,32.92
2024-03-04T12:24:40.210Z,30.32
2024-03-04T12:29:42.975Z,30.14
2024-03-04T12:34:46.716Z,31.93
2024-03-04T12:39:49.676Z,31.71
2024-03-04T12:44:52.556Z,31.43
2024-03-04T12:49:56.076Z,27.07
2024-03-04T12:54:59.587Z,27.19
2024-03-04T13:00:02.486Z,27.94
2024-03-04T13:05:06.012Z,28.78
2024-03-04T13:10:13.064Z,30.47
2024-03-04T13:15:16.319Z,32.77
2024-03-04T13:20:19.228Z,35.61
2024-03-04T13:25:22.795Z,38.75
2024-03-04T13:30:26.775Z,39.93
2024-03-04T13:35:30.103Z,42.71
2024-03-04T13:40:32.868Z,41.47
2024-03-04T13:45:35.882Z,40.70
2024-03-04T13:50:38.806Z,41.06
2024-03-04T13:55:42.194Z,42.51
2024-03-04T14:00:45.236Z,44.91
2024-03-04T14:05:48.437Z,45.07
2024-03-04T14:10:51.476Z,46.46
2024-03-04T14:15:56.743Z,47.73
2024-03-04T14:20:59.820Z,48.39
2024-03-04T14:26:02.830Z,50.29
2024-03-04T14:31:06.982Z,49.69
2024-03-04T14:36:09.974Z,48.02
2024-03-04T14:41:19.218Z,48.48
2024-03-04T14:46:22.182Z,48.71
2024-03-04T14:51:25.513Z,48.89
2024-03-04T14:56:30.691Z,48.97
2024-03-04T15:01:34.848Z,48.96
2024-03-04T15:06:38.046Z,49.82
2024-03-04T15:11:42.769Z,50.03
2024-03-04T15:16:50.944Z,49.77
2024-03-04T15:21:54.638Z,49.71
2024-03-04T15:26:57.662Z,50.42
2024-03-04T15:32:03.638Z,50.16
2024-03-04T15:37:06.888Z,50.08
2024-03-04T15:42:10.682Z,50.36
2024-03-04T15:47:13.667Z,50.54
2024-03-04T15:52:16.596Z,50.64
2024-03-04T15:57:19.431Z,51.24
2024-03-04T16:02:22.485Z,51.24
2024-03-04T16:07:25.428Z,51.75
2024-03-04T16:12:28.802Z,51.69
2024-03-04T16:17:31.965Z,51.94
2024-03-04T16:22:36.539Z,52.11
2024-03-04T16:27:39.562Z,51.98
2024-03-04T16:32:44.627Z,52.60
2024-03-04T16:37:47.856Z,53.19
2024-03-04T16:42:50.849Z,52.78
2024-03-04T16:47:53.823Z,52.68
2024-03-04T16:52:56.975Z,53.83
2024-03-04T16:58:02.010Z,54.08
2024-03-04T17:03:05.841Z,53.79
2024-03-04T17:08:11.735Z,54.29
2024-03-04T17:13:14.755Z,54.91
2024-03-04T17:18:18.091Z,55.53
2024-03-04T17:23:20.911Z,55.19
2024-03-04T17:28:23.882Z,56.24
2024-03-04T17:33:27.547Z,56.90
2024-03-04T17:38:30.335Z,57.12
2024-03-04T17:43:33.277Z,57.05
2024-03-04T17:48:36.181Z,57.32
2024-03-04T17:53:39.017Z,58.28
2024-03-04T17:58:41.911Z,58.77
2024-03-04T18:03:44.885Z,58.61
2024-03-04T18:08:47.997Z,59.19
2024-03-04T18:13:50.959Z,59.68
2024-03-04T18:18:53.806Z,60.54
2024-03-04T18:23:57.428Z,60.19
2024-03-04T18:29:00.699Z,60.31
2024-03-04T18:34:03.755Z,60.42
2024-03-04T18:39:06.765Z,61.77
2024-03-04T18:44:09.556Z,63.44
2024-03-04T18:49:15.087Z,57.11
2024-03-04T18:54:18.935Z,58.53
2024-03-04T18:59:22.466Z,60.26
2024-03-04T19:04:25.461Z,60.98
2024-03-04T19:09:28.385Z,61.06
2024-03-04T19:14:31.286Z,61.03
2024-03-04T19:19:34.119Z,61.14
2024-03-04T19:24:39.658Z,61.35
2024-03-04T19:29:42.512Z,61.96
2024-03-04T19:34:45.655Z,63.63
2024-03-04T19:39:48.775Z,63.61
2024-03-04T19:44:51.989Z,54.31
2024-03-04T19:49:54.926Z,54.16
2024-03-04T19:54:57.902Z,56.50
2024-03-04T20:00:02.135Z,57.66
2024-03-04T20:05:06.184Z,59.13
2024-03-04T20:10:10.612Z,59.07
2024-03-04T20:15:13.825Z,60.23
2024-03-04T20:20:16.735Z,61.28
2024-03-04T20:25:19.978Z,61.52
2024-03-04T20:30:22.945Z,61.88
2024-03-04T20:35:25.949Z,63.84
2024-03-04T20:40:30.759Z,63.24
2024-03-04T20:45:34.120Z,60.41
2024-03-04T20:50:37.316Z,52.26
2024-03-04T20:55:40.768Z,53.58
2024-03-04T21:00:43.656Z,56.72
2024-03-04T21:05:46.551Z,58.18
2024-03-04T21:10:49.538Z,59.97
2024-03-04T21:15:52.659Z,61.15
2024-03-04T21:20:55.566Z,62.46
2024-03-04T21:25:58.530Z,65.78
2024-03-04T21:31:01.478Z,65.74
2024-03-04T21:36:04.905Z,56.66
2024-03-04T21:41:07.845Z,55.36
2024-03-04T21:46:10.937Z,57.59
2024-03-04T21:51:14.123Z,60.28
2024-03-04T21:56:17.025Z,62.42
2024-03-04T22:01:23.679Z,63.81
2024-03-04T22:06:26.742Z,56.61
2024-03-04T22:11:29.695Z,56.58
2024-03-04T22:16:32.659Z,58.92
2024-03-04T22:21:36.262Z,61.27
2024-03-04T22:26:39.167Z,63.15
2024-03-04T22:31:42.914Z,63.43
2024-03-04T22:36:45.957Z,55.79
2024-03-04T22:41:49.534Z,56.13
2024-03-04T22:46:52.618Z,59.24
2024-03-04T22:51:56.352Z,62.16
2024-03-04T22:56:59.179Z,64.08
2024-03-04T23:02:02.217Z,56.32
2024-03-04T23:07:05.275Z,59.31
2024-03-04T23:12:10.353Z,61.54
2024-03-04T23:17:14.047Z,63.56
2024-03-04T23:22:17.072Z,59.29
2024-03-04T23:27:20.772Z,57.21
2024-03-04T23:32:28.132Z,60.94
2024-03-04T23:37:31.118Z,63.68
2024-03-04T23:42:35.010Z,58.93
2024-03-04T23:47:37.893Z,58.38
2024-03-04T23:52:41.898Z,61.56
2024-03-04T23:57:44.875Z,63.28
